Time;durP1;ratioP1;P1;durP2;ratioP2;P2;SDS_P1;SDS_P2;PMS_P1;PMS_P2;Temp;Humidity;BMP_temperature;BMP_pressure;BME280_temperature;BME280_humidity;BME280_pressure;Samples;Min_cycle;Max_cycle;Signal;HPM_P1;HPM_P2
2021/05/15 00:00:56;;;;;;;4.00;2.88;;;;;;;19.15;47.85;100845.00;4773395;30;20107;-89
2021/05/15 00:03:22;;;;;;;4.57;2.95;;;;;;;19.14;47.70;100841.53;4779664;29;20027;-89
2021/05/15 00:05:47;;;;;;;6.15;2.88;;;;;;;19.19;48.04;100841.44;4766816;29;20495;-89
2021/05/15 00:08:14;;;;;;;3.78;2.90;;;;;;;19.18;47.87;100840.56;4747014;30;20115;-90
2021/05/15 00:10:39;;;;;;;4.88;3.10;;;;;;;19.22;47.75;100839.63;4761393;30;20036;-90
2021/05/15 00:13:05;;;;;;;3.83;2.90;;;;;;;19.19;47.93;100834.47;4775149;30;20032;-89
2021/05/15 00:15:30;;;;;;;4.40;2.88;;;;;;;19.18;47.89;100831.88;4763445;30;20038;-90
2021/05/15 00:17:56;;;;;;;4.82;2.85;;;;;;;19.17;47.71;100824.97;4784617;30;20028;-90
2021/05/15 00:20:22;;;;;;;3.80;3.10;;;;;;;19.15;47.67;100822.38;4764938;30;20035;-89
2021/05/15 00:22:48;;;;;;;3.80;2.88;;;;;;;19.18;47.96;100837.09;4776650;30;20020;-91
2021/05/15 00:25:15;;;;;;;4.75;2.90;;;;;;;19.23;48.05;100832.69;4778881;30;20442;-89
2021/05/15 00:27:41;;;;;;;4.65;2.90;;;;;;;19.21;48.14;100821.41;4760900;30;20032;-91
2021/05/15 00:30:09;;;;;;;6.47;2.90;;;;;;;19.24;47.98;100834.41;4776720;30;20183;-89
2021/05/15 00:32:34;;;;;;;4.20;2.78;;;;;;;19.25;47.89;100823.94;4775201;30;20038;-90
2021/05/15 00:35:00;;;;;;;4.57;3.10;;;;;;;19.25;47.98;100821.34;4776482;30;20118;-90
2021/05/15 00:37:26;;;;;;;3.72;3.00;;;;;;;19.23;48.38;100820.50;4745273;30;20039;-91
2021/05/15 00:39:52;;;;;;;5.85;3.13;;;;;;;19.19;48.17;100810.16;4745134;30;20046;-88
2021/05/15 00:42:17;;;;;;;4.65;3.13;;;;;;;19.25;48.01;100807.41;4744535;30;20036;-89
2021/05/15 00:51:27;;;;;;;5.13;2.70;;;;;;;19.25;48.12;100799.59;4782525;30;20073;-85
2021/05/15 00:53:53;;;;;;;5.00;3.03;;;;;;;19.27;48.14;100800.41;4749444;30;20095;-87
2021/05/15 00:56:18;;;;;;;3.47;2.70;;;;;;;19.26;48.14;100798.72;4735872;30;20038;-85
2021/05/15 00:58:45;;;;;;;3.88;2.80;;;;;;;19.29;48.09;100801.25;4785863;30;20070;-87
2021/05/15 01:01:10;;;;;;;4.03;2.78;;;;;;;19.33;48.21;100806.38;4769437;30;20035;-85
2021/05/15 01:03:36;;;;;;;3.95;2.60;;;;;;;19.35;48.30;100798.53;4782780;30;20099;-86
2021/05/15 01:06:03;;;;;;;3.60;2.60;;;;;;;19.34;48.44;100791.63;4766440;30;20036;-87
2021/05/15 01:08:29;;;;;;;3.85;2.72;;;;;;;19.31;48.02;100794.25;4764642;30;20042;-87
2021/05/15 01:10:54;;;;;;;3.60;2.70;;;;;;;19.33;48.18;100795.09;4765240;30;20035;-88
2021/05/15 01:13:31;;;;;;;3.80;2.53;;;;;;;19.32;48.33;100790.78;4778489;30;20036;-87
2021/05/15 01:15:57;;;;;;;3.67;2.70;;;;;;;19.32;48.18;100794.25;4748569;30;20134;-85
2021/05/15 01:18:25;;;;;;;2.95;2.47;;;;;;;19.28;48.42;100791.72;4779624;30;20082;-86
2021/05/15 01:20:50;;;;;;;3.60;2.78;;;;;;;19.22;48.44;100782.25;4779437;30;20036;-85
2021/05/15 01:23:17;;;;;;;3.90;2.70;;;;;;;19.25;48.21;100786.53;4767585;30;20032;-85
2021/05/15 01:25:42;;;;;;;3.95;3.03;;;;;;;19.22;48.21;100776.16;4777617;30;20030;-85
2021/05/15 01:28:07;;;;;;;3.42;2.78;;;;;;;19.24;48.31;100784.84;4777737;30;20032;-86
2021/05/15 01:30:39;;;;;;;4.45;2.83;;;;;;;19.23;48.45;100780.50;4762486;30;20043;-84
2021/05/15 01:33:05;;;;;;;4.65;2.80;;;;;;;19.23;48.29;100780.50;4764505;30;20044;-84
2021/05/15 01:35:30;;;;;;;5.75;2.83;;;;;;;19.24;48.44;100779.63;4781858;30;20063;-85
2021/05/15 01:37:57;;;;;;;3.95;3.00;;;;;;;19.24;48.40;100784.84;4750156;30;20130;-84
2021/05/15 01:40:23;;;;;;;3.40;2.50;;;;;;;19.24;48.49;100774.41;4761693;30;20031;-84
2021/05/15 01:42:53;;;;;;;2.90;2.60;;;;;;;19.27;48.16;100780.44;4762180;30;20101;-85
2021/05/15 01:45:19;;;;;;;3.55;2.50;;;;;;;19.32;48.29;100783.81;4760987;30;20056;-90
2021/05/15 01:47:44;;;;;;;4.22;2.20;;;;;;;19.31;48.37;100781.22;4762667;30;20032;-86
2021/05/15 01:52:54;;;;;;;4.05;2.65;;;;;;;19.25;48.41;100771.78;4778690;30;20073;-84
2021/05/15 01:55:22;;;;;;;2.80;2.35;;;;;;;19.23;48.37;100765.72;4764673;30;20142;-88
2021/05/15 01:57:48;;;;;;;3.03;2.35;;;;;;;19.23;48.27;100762.25;4778257;30;20047;-85
2021/05/15 02:00:14;;;;;;;3.92;2.67;;;;;;;19.28;48.21;100760.41;4779099;30;20036;-85
2021/05/15 02:02:39;;;;;;;3.03;2.50;;;;;;;19.28;48.43;100755.19;4776563;30;20042;-84
2021/05/15 02:05:05;;;;;;;3.88;2.20;;;;;;;19.33;48.21;100758.56;4758196;30;20071;-85
2021/05/15 02:07:33;;;;;;;2.78;2.25;;;;;;;19.31;48.49;100755.13;4758633;30;20090;-85
2021/05/15 02:09:58;;;;;;;3.38;2.22;;;;;;;19.27;48.35;100753.47;4774019;30;20472;-85
2021/05/15 03:32:09;;;;;;;4.47;2.97;;;;;;;18.91;48.08;100675.84;5060039;24;20063;-87
2021/05/15 04:05:55;;;;;;;;;;;;;;;;;;;;;
2021/05/15 04:12:44;;;;;;;;;;;;;;;;;;;;;
2021/05/15 04:15:47;;;;;;;5.15;3.15;;;;;;;18.99;48.22;100653.97;4777689;30;20075;-88
2021/05/15 04:18:31;;;;;;;;;;;;;;;;;;;;;
2021/05/15 04:24:49;;;;;;;;;;;;;;;;;;;;;
2021/05/15 04:33:25;;;;;;;;;;;;;;;;;;;;;
2021/05/15 04:36:02;;;;;;;5.75;2.92;;;;;;;19.06;48.36;100646.03;4787252;30;20055;-89
2021/05/15 05:09:29;;;;;;;3.72;2.50;;;;;;;19.01;48.75;100631.34;4913020;24;20056;-89
2021/05/15 05:18:37;;;;;;;3.92;2.78;;;;;;;18.98;48.78;100627.03;4823971;24;20071;-89
2021/05/15 05:33:03;;;;;;;4.03;2.47;;;;;;;19.20;48.82;100647.50;4906211;24;20059;-89
2021/05/15 05:35:38;;;;;;;;;;;;;;;;;;;;;
2021/05/15 05:38:42;;;;;;;3.88;2.20;;;;;;;19.08;48.82;100638.19;4804740;30;20051;-89
2021/05/15 05:41:30;;;;;;;2.38;1.98;;;;;;;19.05;49.11;100638.22;4785777;30;20053;-89
2021/05/15 06:37:24;;;;;;;2.65;1.90;;;;;;;19.03;48.67;100624.34;4742063;30;20056;-91
2021/05/15 06:40:01;;;;;;;1.90;1.70;;;;;;;19.09;48.72;100621.63;4759455;30;20044;-90
2021/05/15 06:42:26;;;;;;;1.85;1.67;;;;;;;19.14;48.77;100608.50;4760878;30;20041;-91
2021/05/15 06:50:53;;;;;;;3.58;1.90;;;;;;;19.06;48.96;100614.72;4750146;30;20058;-90
2021/05/15 06:53:38;;;;;;;;;;;;;;;;;;;;;
2021/05/15 06:56:39;;;;;;;2.20;2.00;;;;;;;19.07;48.80;100606.00;4750029;30;20064;-89
2021/05/15 06:59:40;;;;;;;;;;;;;;;;;;;;;
2021/05/15 07:02:38;;;;;;;3.13;1.98;;;;;;;19.08;48.77;100601.66;4751931;30;20068;-91
2021/05/15 07:05:40;;;;;;;2.58;1.88;;;;;;;19.09;48.67;100596.41;4749595;30;20048;-91
2021/05/15 07:14:51;;;;;;;2.85;2.25;;;;;;;19.16;48.76;100580.63;4807415;24;20064;-90
2021/05/15 07:18:06;;;;;;;3.15;2.00;;;;;;;19.17;48.65;100588.44;4754269;30;20081;-90
2021/05/15 07:20:42;;;;;;;;;;;;;;;19.17;48.81;100584.97;4748075;30;20054;-91
2021/05/15 07:39:51;;;;;;;;;;;;;;;;;;;;;
2021/05/15 07:43:07;;;;;;;;;;;;;;;;;;;;;
2021/05/15 07:49:25;;;;;;;;;;;;;;;;;;;;;
2021/05/15 07:52:00;;;;;;;;;;;;;;;;;;;;;
2021/05/15 07:55:03;;;;;;;;;;;;;;;;;;;;;
2021/05/15 08:01:00;;;;;;;;;;;;;;;;;;;;;
2021/05/15 08:03:51;;;;;;;2.22;1.88;;;;;;;19.20;49.23;100567.50;4698897;30;20097;-90
2021/05/15 08:06:25;;;;;;;5.22;2.40;;;;;;;19.30;48.83;100562.97;4720298;30;20105;-91
2021/05/15 08:08:56;;;;;;;15.85;2.58;;;;;;;19.23;49.07;100564.84;4749342;30;20039;-92
2021/05/15 08:15:12;;;;;;;4.70;2.67;;;;;;;19.11;48.46;100573.75;4815346;24;20126;-91
2021/05/15 08:28:02;;;;;;;;;;;;;;;;;;;;;
2021/05/15 08:31:21;;;;;;;;;;;;;;;;;;;;;
2021/05/15 08:38:10;;;;;;;;;;;;;;;;;;;;;
2021/05/15 08:47:14;;;;;;;6.32;4.22;;;;;;;19.97;43.38;100531.00;4794267;30;20046;-93
2021/05/15 08:49:40;;;;;;;7.40;4.10;;;;;;;20.00;43.06;100525.75;4777173;30;20039;-90
2021/05/15 08:52:09;;;;;;;6.05;4.40;;;;;;;19.84;43.84;100530.47;4776236;30;20135;-92
2021/05/15 08:54:37;;;;;;;5.78;4.05;;;;;;;19.71;43.85;100535.97;4775646;29;20035;-90
2021/05/15 08:57:03;;;;;;;6.88;4.72;;;;;;;19.70;43.91;100531.63;4776167;30;20049;-89
2021/05/15 08:59:29;;;;;;;7.20;4.70;;;;;;;19.89;43.33;100532.06;4746195;30;20047;-91
2021/05/15 09:01:55;;;;;;;6.45;4.70;;;;;;;19.82;43.39;100533.13;4775541;30;20099;-91
2021/05/15 09:04:22;;;;;;;6.78;5.10;;;;;;;19.84;43.47;100520.88;4746800;30;20039;-89
2021/05/15 09:06:48;;;;;;;7.03;5.05;;;;;;;19.87;43.19;100517.34;4775749;30;20027;-91
2021/05/15 09:09:13;;;;;;;5.40;4.55;;;;;;;19.78;43.65;100522.78;4760698;30;20039;-91
2021/05/15 09:11:39;;;;;;;8.18;5.55;;;;;;;19.75;43.36;100528.94;4767343;30;20031;-91
2021/05/15 09:14:23;;;;;;;6.30;5.15;;;;;;;19.81;42.89;100514.88;4784832;30;20043;-91
2021/05/15 09:16:54;;;;;;;7.18;5.22;;;;;;;20.00;42.43;100515.28;4789279;29;20126;-92
2021/05/15 09:19:25;;;;;;;7.18;5.45;;;;;;;20.08;42.48;100500.28;4774965;30;20438;-92
2021/05/15 09:22:03;;;;;;;5.82;5.07;;;;;;;19.93;42.62;100499.75;4773772;30;20127;-91
2021/05/15 09:24:33;;;;;;;9.73;5.97;;;;;;;19.90;42.65;100501.59;4773966;30;20027;-92
2021/05/15 09:27:01;;;;;;;6.65;5.72;;;;;;;19.94;42.69;100498.84;4775088;30;20032;-93
2021/05/15 09:29:27;;;;;;;6.97;5.57;;;;;;;19.84;42.38;100489.56;4774116;30;20027;-91
2021/05/15 09:31:53;;;;;;;6.57;5.82;;;;;;;19.83;42.41;100497.41;4760609;30;20387;-95
2021/05/15 09:34:19;;;;;;;8.50;5.47;;;;;;;19.94;42.20;100484.94;4775477;30;20034;-94
2021/05/15 09:39:24;;;;;;;7.15;5.22;;;;;;;19.95;42.62;100491.91;4940183;24;20419;-91
2021/05/15 09:41:54;;;;;;;7.43;5.10;;;;;;;19.87;42.36;100486.84;4772543;30;20093;-94
2021/05/15 09:44:24;;;;;;;8.90;5.45;;;;;;;19.86;43.25;100482.53;4756748;30;20041;-90
2021/05/15 09:46:50;;;;;;;6.22;4.72;;;;;;;19.90;44.01;100478.06;4758712;30;20043;-91
2021/05/15 09:49:31;;;;;;;8.00;5.20;;;;;;;19.96;43.45;100479.69;4764070;30;20055;-91
2021/05/15 09:52:04;;;;;;;11.40;5.13;;;;;;;19.99;43.72;100471.75;4762657;30;20046;-91
2021/05/15 09:54:35;;;;;;;10.88;5.00;;;;;;;20.22;43.42;100479.88;4757430;30;20480;-91
2021/05/15 09:57:03;;;;;;;9.95;4.57;;;;;;;20.28;43.72;100474.50;4757235;30;20044;-92
2021/05/15 09:59:45;;;;;;;16.02;4.05;;;;;;;20.29;44.12;100475.34;4757677;30;20097;-92
2021/05/15 10:02:15;;;;;;;10.18;4.57;;;;;;;20.28;44.15;100473.66;4756019;30;20039;-90
2021/05/15 10:04:48;;;;;;;10.88;3.90;;;;;;;20.41;43.90;100471.56;4756404;30;20048;-92
2021/05/15 10:07:15;;;;;;;8.55;4.57;;;;;;;20.60;43.98;100464.97;4742681;30;20032;-92
2021/05/15 10:15:53;;;;;;;25.60;4.63;;;;;;;20.05;50.19;100448.09;4772317;30;20527;-91
2021/05/15 10:19:13;;;;;;;;;;;;;;;;;;;;;
2021/05/15 10:25:00;;;;;;;8.18;3.60;;;;;;;19.77;49.00;100438.34;4759037;30;20039;-88
2021/05/15 10:28:20;;;;;;;;;;;;;;;;;;;;;
2021/05/15 10:31:30;;;;;;;10.25;4.90;;;;;;;19.53;52.58;100435.44;4740560;30;20492;-89
2021/05/15 10:34:11;;;;;;;10.18;5.90;;;;;;;19.36;54.63;100435.00;4761459;30;20085;-91
2021/05/15 10:37:15;;;;;;;7.47;5.45;;;;;;;19.33;53.79;100430.66;4765521;30;20060;-88
2021/05/15 12:25:21;;;;;;;13.60;6.15;;;;;;;18.48;65.00;100336.94;4843931;24;20135;-90
2021/05/15 12:33:43;;;;;;;15.20;6.55;;;;;;;18.59;63.88;100323.69;4882292;24;20060;-90
2021/05/15 12:36:10;;;;;;;14.30;6.40;;;;;;;18.62;63.67;100323.63;4756814;30;20035;-89
2021/05/15 13:59:16;;;;;;;18.13;10.48;;;;;;;18.46;61.21;100216.28;5071945;24;20062;-86
2021/05/15 14:01:43;;;;;;;19.85;9.68;;;;;;;18.43;60.33;100218.97;4786948;30;20040;-89
2021/05/15 14:04:14;;;;;;;17.17;10.57;;;;;;;18.38;60.46;100219.06;4787173;30;20087;-88
2021/05/15 14:06:40;;;;;;;15.60;9.70;;;;;;;18.38;60.32;100211.25;4768413;30;20100;-89
2021/05/15 14:09:10;;;;;;;15.38;10.73;;;;;;;18.35;59.29;100213.06;4769037;30;20032;-88
2021/05/15 14:18:15;;;;;;;14.38;11.15;;;;;;;18.28;60.59;100201.91;4854166;24;20048;-86
2021/05/15 15:08:43;;;;;;;12.88;9.93;;;;;;;18.37;63.40;100216.47;4930503;24;20106;-91
2021/05/15 15:11:09;;;;;;;14.73;10.88;;;;;;;18.40;66.34;100205.97;4801862;30;20047;-90
2021/05/15 15:17:08;;;;;;;15.60;11.75;;;;;;;18.24;70.72;100195.91;4883284;24;20064;-92
2021/05/15 15:19:44;;;;;;;;;;;;;;;;;;;;;
2021/05/15 16:13:38;;;;;;;13.68;12.18;;;;;;;18.12;72.84;100162.34;4865520;24;20146;-87
2021/05/15 16:16:03;;;;;;;14.25;12.38;;;;;;;18.12;75.09;100157.16;4764492;30;20044;-85
2021/05/15 16:18:34;;;;;;;13.50;11.55;;;;;;;18.13;73.78;100160.59;4745114;30;20047;-86
2021/05/15 16:21:00;;;;;;;15.90;11.82;;;;;;;18.12;74.51;100159.75;4797099;24;20047;-85
2021/05/15 16:26:15;;;;;;;14.43;12.00;;;;;;;18.16;74.77;100158.78;4903412;24;20047;-86
2021/05/15 16:28:41;;;;;;;16.55;11.93;;;;;;;18.15;74.79;100153.63;4788339;30;20071;-86
2021/05/15 16:31:08;;;;;;;13.55;11.70;;;;;;;18.15;74.06;100158.81;4790320;30;20036;-85
2021/05/15 17:02:39;;;;;;;50.35;24.27;;;;;;;18.10;74.96;100127.69;4902182;24;20080;-87
2021/05/15 17:11:40;;;;;;;55.28;30.85;;;;;;;18.16;75.14;100129.28;4531408;27;20081;-88
2021/05/15 17:33:40;;;;;;;51.35;28.33;;;;;;;18.20;75.40;100116.13;4802076;24;20597;-88
2021/05/15 17:50:10;;;;;;;50.78;26.15;;;;;;;18.19;74.38;100111.84;4999108;24;20047;-86
2021/05/15 17:55:54;;;;;;;45.65;25.20;;;;;;;18.17;74.03;100107.56;4918838;24;20055;-85
2021/05/15 17:58:23;;;;;;;42.25;24.35;;;;;;;18.19;75.02;100103.19;4742853;30;20054;-88
2021/05/15 18:19:06;;;;;;;35.63;22.90;;;;;;;18.19;73.37;100111.00;4897833;24;20085;-88
2021/05/15 20:04:10;;;;;;;16.05;12.18;;;;;;;18.25;69.92;100129.94;2582053;24;20097;-87
2021/05/15 20:06:42;;;;;;;15.75;11.82;;;;;;;18.26;70.19;100126.41;4755770;30;20138;-87
2021/05/15 20:12:15;;;;;;;14.52;11.40;;;;;;;18.24;69.98;100125.59;4868816;24;20063;-86
2021/05/15 20:14:41;;;;;;;16.42;11.65;;;;;;;18.25;69.10;100129.94;4779655;24;20127;-86
2021/05/15 20:23:20;;;;;;;14.52;10.60;;;;;;;18.27;69.25;100122.09;4890871;24;20082;-87
2021/05/15 20:25:51;;;;;;;15.88;10.77;;;;;;;18.30;69.43;100127.22;4776859;30;20048;-86
2021/05/15 20:28:16;;;;;;;14.70;10.65;;;;;;;18.25;69.66;100111.69;4757333;30;20112;-88
2021/05/15 20:37:26;;;;;;;14.18;10.50;;;;;;;18.28;68.45;100118.56;4786277;29;20046;-88
2021/05/15 20:40:48;;;;;;;;;;;;;;;;;;;;;
2021/05/15 21:00:56;;;;;;;;;;;;;;;;;;;;;
2021/05/15 21:04:14;;;;;;;;;;;;;;;;;;;;;
2021/05/15 21:17:34;;;;;;;11.20;8.38;;;;;;;18.35;66.87;100119.28;2312404;24;20059;-87
2021/05/15 21:26:45;;;;;;;10.27;7.88;;;;;;;18.34;67.43;100109.78;4807378;29;20080;-87
2021/05/15 21:38:28;;;;;;;11.35;7.60;;;;;;;18.34;67.08;100110.63;4806910;30;20053;-90
2021/05/15 21:43:53;;;;;;;8.82;7.50;;;;;;;18.35;67.33;100119.28;4835153;24;20081;-88
2021/05/15 21:46:18;;;;;;;9.77;7.50;;;;;;;18.34;67.04;100117.59;4756772;30;20127;-89
2021/05/15 21:52:06;;;;;;;8.65;7.55;;;;;;;18.36;66.89;100115.81;4785074;30;20063;-89
2021/05/15 21:58:03;;;;;;;8.68;7.35;;;;;;;18.28;68.58;100114.22;4864680;24;20083;-90
2021/05/15 22:00:43;;;;;;;8.45;7.18;;;;;;;18.28;68.17;100108.16;4804441;30;20046;-89
2021/05/15 22:03:12;;;;;;;8.73;6.97;;;;;;;18.26;68.77;100102.97;4785862;30;20059;-89
2021/05/15 22:05:38;;;;;;;7.53;6.45;;;;;;;18.26;69.33;100107.34;4783400;30;20032;-90
2021/05/15 22:11:05;;;;;;;8.50;6.75;;;;;;;18.26;68.77;100102.13;4807640;24;20059;-89
2021/05/15 22:13:31;;;;;;;7.38;5.93;;;;;;;18.26;67.73;100102.97;4772716;30;20043;-89
2021/05/15 22:15:57;;;;;;;7.35;6.35;;;;;;;18.25;69.00;100103.88;4739342;30;20032;-89
2021/05/15 22:18:27;;;;;;;8.30;6.05;;;;;;;18.24;67.01;100103.91;4766893;30;20012;-89
2021/05/15 22:28:15;;;;;;;7.40;6.25;;;;;;;18.23;69.06;100094.41;4770165;30;20102;-89
2021/05/15 23:34:12;;;;;;;5.55;4.55;;;;;;;18.28;66.99;100084.72;5017308;24;20122;-91
2021/05/15 23:36:43;;;;;;;6.18;4.35;;;;;;;18.26;67.64;100078.69;4941823;24;20102;-89
